sensor_id;sensor_type;location;lat;lon;timestamp;pressure;altitude;pressure_sealevel;temperature;humidity
24666;BME280;29726;53.532;-1.478;2022-11-20T00:00:54;99691.81;;;11.88;nan
24666;BME280;29726;53.532;-1.478;2022-11-20T00:03:19;99689.03;;;11.88;nan
24666;BME280;29726;53.532;-1.478;2022-11-20T00:05:45;99681.13;;;11.87;nan
24666;BME280;29726;53.532;-1.478;2022-11-20T00:08:11;99672.72;;;11.87;nan
24666;BME280;29726;53.532;-1.478;2022-11-20T00:10:40;99672.47;;;11.85;nan
24666;BME280;29726;53.532;-1.478;2022-11-20T00:13:06;99671.19;;;11.86;nan
24666;BME280;29726;53.532;-1.478;2022-11-20T00:15:33;99670.19;;;11.83;nan
24666;BME280;29726;53.532;-1.478;2022-11-20T00:17:58;99661.22;;;11.79;nan
24666;BME280;29726;53.532;-1.478;2022-11-20T00:20:24;99656.19;;;11.83;nan
24666;BME280;29726;53.532;-1.478;2022-11-20T00:22:49;99659.00;;;11.83;nan
24666;BME280;29726;53.532;-1.478;2022-11-20T00:25:15;99655.41;;;11.83;nan
24666;BME280;29726;53.532;-1.478;2022-11-20T00:27:40;99653.88;;;11.82;nan
24666;BME280;29726;53.532;-1.478;2022-11-20T00:30:06;99648.28;;;11.82;nan
24666;BME280;29726;53.532;-1.478;2022-11-20T00:32:32;99644.72;;;11.81;nan
24666;BME280;29726;53.532;-1.478;2022-11-20T00:34:57;99638.38;;;11.81;nan
24666;BME280;29726;53.532;-1.478;2022-11-20T00:37:23;99640.38;;;11.80;nan
24666;BME280;29726;53.532;-1.478;2022-11-20T00:39:48;99619.28;;;11.79;nan
24666;BME280;29726;53.532;-1.478;2022-11-20T00:42:13;99627.38;;;11.72;nan
24666;BME280;29726;53.532;-1.478;2022-11-20T00:44:39;99620.06;;;11.80;nan
24666;BME280;29726;53.532;-1.478;2022-11-20T00:47:04;99620.53;;;11.78;nan
24666;BME280;29726;53.532;-1.478;2022-11-20T00:49:30;99612.41;;;11.75;nan
24666;BME280;29726;53.532;-1.478;2022-11-20T00:51:55;99614.94;;;11.78;nan
24666;BME280;29726;53.532;-1.478;2022-11-20T00:54:20;99614.94;;;11.78;nan
24666;BME280;29726;53.532;-1.478;2022-11-20T00:56:46;99596.63;;;11.72;nan
24666;BME280;29726;53.532;-1.478;2022-11-20T00:59:11;99600.72;;;11.76;nan
24666;BME280;29726;53.532;-1.478;2022-11-20T01:01:37;99595.91;;;11.77;nan
24666;BME280;29726;53.532;-1.478;2022-11-20T01:04:03;99598.69;;;11.77;nan
24666;BME280;29726;53.532;-1.478;2022-11-20T01:06:36;99596.38;;;11.75;nan
24666;BME280;29726;53.532;-1.478;2022-11-20T01:09:04;99592.06;;;11.74;nan
24666;BME280;29726;53.532;-1.478;2022-11-20T01:11:33;99585.72;;;11.74;nan
24666;BME280;29726;53.532;-1.478;2022-11-20T01:14:00;99574.47;;;11.68;nan
24666;BME280;29726;53.532;-1.478;2022-11-20T01:16:31;99576.06;;;11.75;nan
24666;BME280;29726;53.532;-1.478;2022-11-20T01:18:59;99570.19;;;11.73;nan
24666;BME280;29726;53.532;-1.478;2022-11-20T01:21:37;99564.59;;;11.73;nan
24666;BME280;29726;53.532;-1.478;2022-11-20T01:24:04;99558.97;;;11.67;nan
24666;BME280;29726;53.532;-1.478;2022-11-20T01:26:33;99552.13;;;11.68;nan
24666;BME280;29726;53.532;-1.478;2022-11-20T01:28:59;99556.72;;;11.71;nan
24666;BME280;29726;53.532;-1.478;2022-11-20T01:33:54;99550.34;;;11.71;nan
24666;BME280;29726;53.532;-1.478;2022-11-20T01:36:21;99544.75;;;11.71;nan
24666;BME280;29726;53.532;-1.478;2022-11-20T01:38:47;99548.81;;;11.70;nan
24666;BME280;29726;53.532;-1.478;2022-11-20T01:41:15;99542.47;;;11.69;nan
24666;BME280;29726;53.532;-1.478;2022-11-20T01:44:00;99537.63;;;11.70;nan
24666;BME280;29726;53.532;-1.478;2022-11-20T01:46:26;99526.19;;;11.68;nan
24666;BME280;29726;53.532;-1.478;2022-11-20T01:49:04;99523.38;;;11.68;nan
24666;BME280;29726;53.532;-1.478;2022-11-20T01:51:53;99516.25;;;11.67;nan
24666;BME280;29726;53.532;-1.478;2022-11-20T01:54:29;99517.53;;;11.66;nan
24666;BME280;29726;53.532;-1.478;2022-11-20T01:57:00;99504.31;;;11.66;nan
24666;BME280;29726;53.532;-1.478;2022-11-20T01:59:28;99504.31;;;11.66;nan
24666;BME280;29726;53.532;-1.478;2022-11-20T02:01:54;99502.03;;;11.65;nan
24666;BME280;29726;53.532;-1.478;2022-11-20T02:04:20;99485.97;;;11.60;nan
24666;BME280;29726;53.532;-1.478;2022-11-20T02:07:00;99497.22;;;11.65;nan
24666;BME280;29726;53.532;-1.478;2022-11-20T02:09:26;99491.56;;;11.60;nan
24666;BME280;29726;53.532;-1.478;2022-11-20T02:11:52;99489.31;;;11.64;nan
24666;BME280;29726;53.532;-1.478;2022-11-20T02:14:18;99491.34;;;11.63;nan
24666;BME280;29726;53.532;-1.478;2022-11-20T02:16:46;99493.38;;;11.63;nan
24666;BME280;29726;53.532;-1.478;2022-11-20T02:19:19;99483.44;;;11.62;nan
24666;BME280;29726;53.532;-1.478;2022-11-20T02:24:29;99457.50;;;11.56;nan
24666;BME280;29726;53.532;-1.478;2022-11-20T02:27:04;99461.09;;;11.62;nan
24666;BME280;29726;53.532;-1.478;2022-11-20T02:32:23;99456.03;;;11.61;nan
24666;BME280;29726;53.532;-1.478;2022-11-20T02:34:49;99442.53;;;11.59;nan
24666;BME280;29726;53.532;-1.478;2022-11-20T02:37:15;99445.31;;;11.59;nan
24666;BME280;29726;53.532;-1.478;2022-11-20T02:39:41;99436.94;;;11.59;nan
24666;BME280;29726;53.532;-1.478;2022-11-20T02:42:07;99436.69;;;11.57;nan
24666;BME280;29726;53.532;-1.478;2022-11-20T02:44:32;99428.28;;;11.57;nan
24666;BME280;29726;53.532;-1.478;2022-11-20T02:46:58;99423.97;;;11.56;nan
24666;BME280;29726;53.532;-1.478;2022-11-20T02:49:24;99416.34;;;11.57;nan
24666;BME280;29726;53.532;-1.478;2022-11-20T02:51:50;99420.41;;;11.56;nan
24666;BME280;29726;53.532;-1.478;2022-11-20T02:54:16;99415.59;;;11.56;nan
24666;BME280;29726;53.532;-1.478;2022-11-20T02:56:42;99407.66;;;11.54;nan
24666;BME280;29726;53.532;-1.478;2022-11-20T02:59:07;99400.06;;;11.55;nan
24666;BME280;29726;53.532;-1.478;2022-11-20T03:01:33;99395.72;;;11.54;nan
24666;BME280;29726;53.532;-1.478;2022-11-20T03:03:58;99383.25;;;11.50;nan
24666;BME280;29726;53.532;-1.478;2022-11-20T03:06:24;99385.31;;;11.54;nan
24666;BME280;29726;53.532;-1.478;2022-11-20T03:08:49;99377.44;;;11.53;nan
24666;BME280;29726;53.532;-1.478;2022-11-20T03:11:14;99383.50;;;11.52;nan
24666;BME280;29726;53.532;-1.478;2022-11-20T03:13:40;99377.16;;;11.51;nan
24666;BME280;29726;53.532;-1.478;2022-11-20T03:16:13;99380.72;;;11.52;nan
24666;BME280;29726;53.532;-1.478;2022-11-20T03:18:40;99376.13;;;11.49;nan
24666;BME280;29726;53.532;-1.478;2022-11-20T03:21:06;99370.31;;;11.52;nan
24666;BME280;29726;53.532;-1.478;2022-11-20T03:23:33;99368.00;;;11.51;nan
24666;BME280;29726;53.532;-1.478;2022-11-20T03:28:45;99342.09;;;11.50;nan
24666;BME280;29726;53.532;-1.478;2022-11-20T03:31:14;99315.34;;;11.33;nan
24666;BME280;29726;53.532;-1.478;2022-11-20T03:33:41;99327.84;;;11.48;nan
24666;BME280;29726;53.532;-1.478;2022-11-20T03:36:10;99325.56;;;11.47;nan
24666;BME280;29726;53.532;-1.478;2022-11-20T03:38:36;99327.84;;;11.48;nan
24666;BME280;29726;53.532;-1.478;2022-11-20T03:41:08;99320.47;;;11.45;nan
24666;BME280;29726;53.532;-1.478;2022-11-20T03:43:34;99317.94;;;11.47;nan
24666;BME280;29726;53.532;-1.478;2022-11-20T03:45:59;99311.59;;;11.47;nan
24666;BME280;29726;53.532;-1.478;2022-11-20T03:48:25;99310.56;;;11.44;nan
24666;BME280;29726;53.532;-1.478;2022-11-20T03:50:52;99295.06;;;11.43;nan
24666;BME280;29726;53.532;-1.478;2022-11-20T03:53:18;99290.25;;;11.44;nan
24666;BME280;29726;53.532;-1.478;2022-11-20T03:55:43;99287.47;;;11.44;nan
24666;BME280;29726;53.532;-1.478;2022-11-20T03:58:09;99288.72;;;11.43;nan
24666;BME280;29726;53.532;-1.478;2022-11-20T04:00:35;99282.88;;;11.41;nan
24666;BME280;29726;53.532;-1.478;2022-11-20T04:03:01;99274.72;;;11.37;nan
24666;BME280;29726;53.532;-1.478;2022-11-20T04:05:27;99271.72;;;11.41;nan
24666;BME280;29726;53.532;-1.478;2022-11-20T04:07:52;99261.53;;;11.38;nan
24666;BME280;29726;53.532;-1.478;2022-11-20T04:10:18;99265.34;;;11.40;nan
24666;BME280;29726;53.532;-1.478;2022-11-20T04:12:43;99257.19;;;11.37;nan
24666;BME280;29726;53.532;-1.478;2022-11-20T04:15:09;99250.59;;;11.34;nan
24666;BME280;29726;53.532;-1.478;2022-11-20T04:17:34;99246.78;;;11.37;nan
24666;BME280;29726;53.532;-1.478;2022-11-20T04:20:00;99237.91;;;11.33;nan
24666;BME280;29726;53.532;-1.478;2022-11-20T04:22:26;99238.16;;;11.35;nan
24666;BME280;29726;53.532;-1.478;2022-11-20T04:24:51;99242.97;;;11.35;nan
24666;BME280;29726;53.532;-1.478;2022-11-20T04:27:16;99243.75;;;11.35;nan
24666;BME280;29726;53.532;-1.478;2022-11-20T04:29:42;99245.50;;;11.33;nan
24666;BME280;29726;53.532;-1.478;2022-11-20T04:32:07;99235.09;;;11.33;nan
24666;BME280;29726;53.532;-1.478;2022-11-20T04:34:33;99239.91;;;11.33;nan
24666;BME280;29726;53.532;-1.478;2022-11-20T04:36:58;99235.09;;;11.33;nan
24666;BME280;29726;53.532;-1.478;2022-11-20T04:39:23;99228.00;;;11.32;nan
24666;BME280;29726;53.532;-1.478;2022-11-20T04:41:49;99231.78;;;11.29;nan
24666;BME280;29726;53.532;-1.478;2022-11-20T04:44:34;99234.84;;;11.31;nan
24666;BME280;29726;53.532;-1.478;2022-11-20T04:46:59;99236.84;;;11.31;nan
24666;BME280;29726;53.532;-1.478;2022-11-20T04:49:25;99225.69;;;11.31;nan
24666;BME280;29726;53.532;-1.478;2022-11-20T04:51:53;99229.25;;;11.31;nan
24666;BME280;29726;53.532;-1.478;2022-11-20T04:54:18;99228.75;;;11.27;nan
24666;BME280;29726;53.532;-1.478;2022-11-20T04:56:47;99230.53;;;11.30;nan
24666;BME280;29726;53.532;-1.478;2022-11-20T04:59:12;99234.59;;;11.29;nan
24666;BME280;29726;53.532;-1.478;2022-11-20T05:01:38;99229.50;;;11.28;nan
24666;BME280;29726;53.532;-1.478;2022-11-20T05:04:03;99227.47;;;11.28;nan
24666;BME280;29726;53.532;-1.478;2022-11-20T05:06:29;99226.19;;;11.24;nan
24666;BME280;29726;53.532;-1.478;2022-11-20T05:08:54;99226.69;;;11.28;nan
24666;BME280;29726;53.532;-1.478;2022-11-20T05:11:20;99232.28;;;11.28;nan
24666;BME280;29726;53.532;-1.478;2022-11-20T05:13:47;99220.59;;;11.24;nan
24666;BME280;29726;53.532;-1.478;2022-11-20T05:16:15;99227.47;;;11.28;nan
24666;BME280;29726;53.532;-1.478;2022-11-20T05:18:41;99225.16;;;11.27;nan
24666;BME280;29726;53.532;-1.478;2022-11-20T05:21:07;99212.97;;;11.24;nan
24666;BME280;29726;53.532;-1.478;2022-11-20T05:23:34;99214.78;;;11.27;nan
24666;BME280;29726;53.532;-1.478;2022-11-20T05:25:59;99209.91;;;11.22;nan
24666;BME280;29726;53.532;-1.478;2022-11-20T05:28:26;99212.47;;;11.26;nan
24666;BME280;29726;53.532;-1.478;2022-11-20T05:30:53;99207.13;;;11.22;nan
24666;BME280;29726;53.532;-1.478;2022-11-20T05:33:18;99223.91;;;11.28;nan
24666;BME280;29726;53.532;-1.478;2022-11-20T05:35:44;99208.38;;;11.21;nan
24666;BME280;29726;53.532;-1.478;2022-11-20T05:38:09;99218.84;;;11.26;nan
24666;BME280;29726;53.532;-1.478;2022-11-20T05:40:35;99208.91;;;11.25;nan
24666;BME280;29726;53.532;-1.478;2022-11-20T05:43:01;99206.09;;;11.25;nan
24666;BME280;29726;53.532;-1.478;2022-11-20T05:45:26;99205.34;;;11.25;nan
24666;BME280;29726;53.532;-1.478;2022-11-20T05:47:52;99196.72;;;11.23;nan
24666;BME280;29726;53.532;-1.478;2022-11-20T05:50:17;99190.63;;;11.24;nan
24666;BME280;29726;53.532;-1.478;2022-11-20T05:52:42;99177.16;;;11.23;nan
24666;BME280;29726;53.532;-1.478;2022-11-20T05:55:08;99183.50;;;11.23;nan
24666;BME280;29726;53.532;-1.478;2022-11-20T05:57:34;99174.59;;;11.19;nan
24666;BME280;29726;53.532;-1.478;2022-11-20T05:59:59;99172.31;;;11.23;nan
24666;BME280;29726;53.532;-1.478;2022-11-20T06:02:24;99166.00;;;11.23;nan
24666;BME280;29726;53.532;-1.478;2022-11-20T06:04:50;99160.66;;;11.19;nan
24666;BME280;29726;53.532;-1.478;2022-11-20T06:07:15;99160.41;;;11.23;nan
24666;BME280;29726;53.532;-1.478;2022-11-20T06:09:40;99158.88;;;11.22;nan
24666;BME280;29726;53.532;-1.478;2022-11-20T06:12:06;99156.09;;;11.22;nan
24666;BME280;29726;53.532;-1.478;2022-11-20T06:14:32;99151.25;;;11.22;nan
24666;BME280;29726;53.532;-1.478;2022-11-20T06:16:57;99144.41;;;11.23;nan
24666;BME280;29726;53.532;-1.478;2022-11-20T06:19:23;99142.13;;;11.22;nan
24666;BME280;29726;53.532;-1.478;2022-11-20T06:21:49;99151.25;;;11.22;nan
24666;BME280;29726;53.532;-1.478;2022-11-20T06:24:15;99146.44;;;11.23;nan
24666;BME280;29726;53.532;-1.478;2022-11-20T06:26:41;99143.41;;;11.21;nan
24666;BME280;29726;53.532;-1.478;2022-11-20T06:29:07;99144.41;;;11.23;nan
24666;BME280;29726;53.532;-1.478;2022-11-20T06:31:32;99136.03;;;11.23;nan
24666;BME280;29726;53.532;-1.478;2022-11-20T06:34:03;99138.31;;;11.19;nan
24666;BME280;29726;53.532;-1.478;2022-11-20T06:36:29;99148.72;;;11.24;nan
24666;BME280;29726;53.532;-1.478;2022-11-20T06:38:54;99147.19;;;11.23;nan
24666;BME280;29726;53.532;-1.478;2022-11-20T06:41:21;99154.03;;;11.22;nan
24666;BME280;29726;53.532;-1.478;2022-11-20T06:43:47;99148.47;;;11.22;nan
24666;BME280;29726;53.532;-1.478;2022-11-20T06:46:14;99145.16;;;11.18;nan
24666;BME280;29726;53.532;-1.478;2022-11-20T06:48:40;99147.72;;;11.22;nan
24666;BME280;29726;53.532;-1.478;2022-11-20T06:51:06;99146.19;;;11.21;nan
24666;BME280;29726;53.532;-1.478;2022-11-20T06:53:32;99151.00;;;11.20;nan
24666;BME280;29726;53.532;-1.478;2022-11-20T06:55:59;99138.03;;;11.17;nan
24666;BME280;29726;53.532;-1.478;2022-11-20T06:58:27;99143.13;;;11.19;nan
24666;BME280;29726;53.532;-1.478;2022-11-20T07:00:53;99148.72;;;11.19;nan
24666;BME280;29726;53.532;-1.478;2022-11-20T07:03:18;99150.25;;;11.20;nan
24666;BME280;29726;53.532;-1.478;2022-11-20T07:05:44;99157.84;;;11.19;nan
24666;BME280;29726;53.532;-1.478;2022-11-20T07:08:11;99161.44;;;11.20;nan
24666;BME280;29726;53.532;-1.478;2022-11-20T07:10:37;99167.50;;;11.18;nan
24666;BME280;29726;53.532;-1.478;2022-11-20T07:13:03;99159.13;;;11.18;nan
24666;BME280;29726;53.532;-1.478;2022-11-20T07:15:29;99170.28;;;11.18;nan
24666;BME280;29726;53.532;-1.478;2022-11-20T07:17:54;99168.28;;;11.19;nan
24666;BME280;29726;53.532;-1.478;2022-11-20T07:20:20;99161.91;;;11.18;nan
24666;BME280;29726;53.532;-1.478;2022-11-20T07:22:45;99171.06;;;11.19;nan
24666;BME280;29726;53.532;-1.478;2022-11-20T07:25:10;99169.81;;;11.20;nan
24666;BME280;29726;53.532;-1.478;2022-11-20T07:27:36;99175.13;;;11.18;nan
24666;BME280;29726;53.532;-1.478;2022-11-20T07:30:03;99169.53;;;11.18;nan
24666;BME280;29726;53.532;-1.478;2022-11-20T07:32:29;99179.69;;;11.15;nan
24666;BME280;29726;53.532;-1.478;2022-11-20T07:34:54;99177.94;;;11.18;nan
24666;BME280;29726;53.532;-1.478;2022-11-20T07:37:20;99170.78;;;11.11;nan
24666;BME280;29726;53.532;-1.478;2022-11-20T07:39:45;99179.94;;;11.17;nan
24666;BME280;29726;53.532;-1.478;2022-11-20T07:42:11;99176.41;;;11.17;nan
24666;BME280;29726;53.532;-1.478;2022-11-20T07:44:37;99181.22;;;11.16;nan
24666;BME280;29726;53.532;-1.478;2022-11-20T07:47:03;99155.03;;;11.08;nan
24666;BME280;29726;53.532;-1.478;2022-11-20T07:49:28;99172.81;;;11.16;nan
24666;BME280;29726;53.532;-1.478;2022-11-20T07:51:53;99184.00;;;11.16;nan
24666;BME280;29726;53.532;-1.478;2022-11-20T07:54:20;99171.31;;;11.15;nan
24666;BME280;29726;53.532;-1.478;2022-11-20T07:56:46;99164.97;;;11.15;nan
24666;BME280;29726;53.532;-1.478;2022-11-20T07:59:11;99191.34;;;11.14;nan
24666;BME280;29726;53.532;-1.478;2022-11-20T08:01:38;99200.50;;;11.14;nan
24666;BME280;29726;53.532;-1.478;2022-11-20T08:04:03;99189.31;;;11.09;nan
24666;BME280;29726;53.532;-1.478;2022-11-20T08:06:28;99202.25;;;11.12;nan
24666;BME280;29726;53.532;-1.478;2022-11-20T08:08:54;99206.31;;;11.11;nan
24666;BME280;29726;53.532;-1.478;2022-11-20T08:11:19;99209.88;;;11.11;nan
24666;BME280;29726;53.532;-1.478;2022-11-20T08:14:03;99204.31;;;11.11;nan
24666;BME280;29726;53.532;-1.478;2022-11-20T08:16:42;99204.03;;;11.09;nan
24666;BME280;29726;53.532;-1.478;2022-11-20T08:19:08;99192.09;;;11.09;nan
24666;BME280;29726;53.532;-1.478;2022-11-20T08:21:33;99206.56;;;11.07;nan
24666;BME280;29726;53.532;-1.478;2022-11-20T08:23:59;99207.31;;;11.08;nan
24666;BME280;29726;53.532;-1.478;2022-11-20T08:26:25;99203.78;;;11.07;nan
24666;BME280;29726;53.532;-1.478;2022-11-20T08:28:57;99214.44;;;11.09;nan
24666;BME280;29726;53.532;-1.478;2022-11-20T08:31:27;99212.16;;;11.07;nan
24666;BME280;29726;53.532;-1.478;2022-11-20T08:33:52;99221.28;;;11.08;nan
24666;BME280;29726;53.532;-1.478;2022-11-20T08:36:18;99222.06;;;11.08;nan
24666;BME280;29726;53.532;-1.478;2022-11-20T08:38:48;99220.50;;;11.02;nan
24666;BME280;29726;53.532;-1.478;2022-11-20T08:41:14;99210.88;;;11.03;nan
24666;BME280;29726;53.532;-1.478;2022-11-20T08:43:49;99223.34;;;11.07;nan
24666;BME280;29726;53.532;-1.478;2022-11-20T08:46:15;99227.66;;;11.08;nan
24666;BME280;29726;53.532;-1.478;2022-11-20T08:48:41;99228.91;;;11.07;nan
24666;BME280;29726;53.532;-1.478;2022-11-20T08:51:07;99210.84;;;10.92;nan
24666;BME280;29726;53.532;-1.478;2022-11-20T08:53:32;99238.78;;;11.03;nan
24666;BME280;29726;53.532;-1.478;2022-11-20T08:55:58;99237.78;;;11.06;nan
24666;BME280;29726;53.532;-1.478;2022-11-20T08:58:24;99240.34;;;11.09;nan
24666;BME280;29726;53.532;-1.478;2022-11-20T09:00:49;99243.13;;;11.09;nan
24666;BME280;29726;53.532;-1.478;2022-11-20T09:03:14;99254.56;;;11.11;nan
24666;BME280;29726;53.532;-1.478;2022-11-20T09:05:40;99243.41;;;11.11;nan
24666;BME280;29726;53.532;-1.478;2022-11-20T09:08:05;99242.88;;;11.13;nan
24666;BME280;29726;53.532;-1.478;2022-11-20T09:10:31;99244.41;;;11.14;nan
24666;BME280;29726;53.532;-1.478;2022-11-20T09:12:57;99241.91;;;11.16;nan
24666;BME280;29726;53.532;-1.478;2022-11-20T09:15:24;99241.13;;;11.15;nan
24666;BME280;29726;53.532;-1.478;2022-11-20T09:17:54;99232.75;;;11.15;nan
24666;BME280;29726;53.532;-1.478;2022-11-20T09:20:20;99224.84;;;11.14;nan
24666;BME280;29726;53.532;-1.478;2022-11-20T09:22:46;99230.22;;;11.17;nan
24666;BME280;29726;53.532;-1.478;2022-11-20T09:25:12;99234.53;;;11.18;nan
24666;BME280;29726;53.532;-1.478;2022-11-20T09:27:37;99231.25;;;11.20;nan
24666;BME280;29726;53.532;-1.478;2022-11-20T09:30:03;99233.00;;;11.17;nan
24666;BME280;29726;53.532;-1.478;2022-11-20T09:32:29;99234.31;;;11.22;nan
24666;BME280;29726;53.532;-1.478;2022-11-20T09:34:54;99249.00;;;11.22;nan
24666;BME280;29726;53.532;-1.478;2022-11-20T09:37:20;99254.84;;;11.24;nan
24666;BME280;29726;53.532;-1.478;2022-11-20T09:39:46;99257.94;;;11.26;nan
24666;BME280;29726;53.532;-1.478;2022-11-20T09:47:48;99257.69;;;11.30;nan
24666;BME280;29726;53.532;-1.478;2022-11-20T09:50:32;99252.09;;;11.30;nan
24666;BME280;29726;53.532;-1.478;2022-11-20T09:53:37;99264.31;;;11.32;nan
24666;BME280;29726;53.532;-1.478;2022-11-20T09:56:10;99265.06;;;11.33;nan
24666;BME280;29726;53.532;-1.478;2022-11-20T09:58:48;99253.38;;;11.34;nan
24666;BME280;29726;53.532;-1.478;2022-11-20T10:01:17;99250.84;;;11.36;nan
24666;BME280;29726;53.532;-1.478;2022-11-20T10:06:31;99245.03;;;11.40;nan
24666;BME280;29726;53.532;-1.478;2022-11-20T10:09:27;99243.50;;;11.39;nan
24666;BME280;29726;53.532;-1.478;2022-11-20T10:12:14;99244.28;;;11.45;nan
24666;BME280;29726;53.532;-1.478;2022-11-20T10:26:17;99232.13;;;11.58;nan
24666;BME280;29726;53.532;-1.478;2022-11-20T10:28:46;99235.22;;;11.61;nan
24666;BME280;29726;53.532;-1.478;2022-11-20T10:31:26;99227.84;;;11.63;nan
24666;BME280;29726;53.532;-1.478;2022-11-20T10:33:55;99228.34;;;11.67;nan
24666;BME280;29726;53.532;-1.478;2022-11-20T10:36:28;99230.91;;;11.70;nan
24666;BME280;29726;53.532;-1.478;2022-11-20T10:41:27;99232.69;;;11.73;nan
24666;BME280;29726;53.532;-1.478;2022-11-20T10:44:20;99236.25;;;11.79;nan
24666;BME280;29726;53.532;-1.478;2022-11-20T10:47:08;99229.13;;;11.84;nan
24666;BME280;29726;53.532;-1.478;2022-11-20T10:49:35;99221.00;;;11.86;nan
24666;BME280;29726;53.532;-1.478;2022-11-20T10:55:20;99224.56;;;11.97;nan
24666;BME280;29726;53.532;-1.478;2022-11-20T11:01:20;99228.63;;;12.13;nan
24666;BME280;29726;53.532;-1.478;2022-11-20T11:03:50;99226.63;;;12.19;nan
24666;BME280;29726;53.532;-1.478;2022-11-20T11:08:47;99224.06;;;12.32;nan
24666;BME280;29726;53.532;-1.478;2022-11-20T11:11:26;99225.06;;;12.40;nan
24666;BME280;29726;53.532;-1.478;2022-11-20T11:13:53;99210.06;;;12.43;nan
24666;BME280;29726;53.532;-1.478;2022-11-20T11:16:28;99206.19;;;12.51;nan
24666;BME280;29726;53.532;-1.478;2022-11-20T11:19:12;99193.97;;;12.60;nan
24666;BME280;29726;53.532;-1.478;2022-11-20T11:21:38;99186.59;;;12.62;nan
24666;BME280;29726;53.532;-1.478;2022-11-20T11:24:19;99190.31;;;12.87;nan
24666;BME280;29726;53.532;-1.478;2022-11-20T11:26:57;99179.66;;;12.80;nan
24666;BME280;29726;53.532;-1.478;2022-11-20T11:29:23;99187.28;;;12.85;nan
24666;BME280;29726;53.532;-1.478;2022-11-20T11:31:49;99177.09;;;12.82;nan
24666;BME280;29726;53.532;-1.478;2022-11-20T11:34:17;99182.19;;;12.94;nan
24666;BME280;29726;53.532;-1.478;2022-11-20T11:36:54;99183.69;;;13.01;nan
24666;BME280;29726;53.532;-1.478;2022-11-20T11:39:21;99192.56;;;13.05;nan
24666;BME280;29726;53.532;-1.478;2022-11-20T11:41:47;99186.94;;;13.10;nan
24666;BME280;29726;53.532;-1.478;2022-11-20T11:44:21;99188.47;;;13.17;nan
24666;BME280;29726;53.532;-1.478;2022-11-20T11:50:24;99186.06;;;13.31;nan
24666;BME280;29726;53.532;-1.478;2022-11-20T11:53:14;99184.25;;;13.39;nan
24666;BME280;29726;53.532;-1.478;2022-11-20T11:55:49;99178.31;;;13.48;nan
24666;BME280;29726;53.532;-1.478;2022-11-20T11:58:44;99177.03;;;13.55;nan
24666;BME280;29726;53.532;-1.478;2022-11-20T12:01:31;99169.06;;;13.64;nan
24666;BME280;29726;53.532;-1.478;2022-11-20T12:04:14;99174.31;;;13.73;nan
24666;BME280;29726;53.532;-1.478;2022-11-20T12:06:44;99170.22;;;13.80;nan
24666;BME280;29726;53.532;-1.478;2022-11-20T12:09:11;99171.94;;;13.88;nan
24666;BME280;29726;53.532;-1.478;2022-11-20T12:11:51;99169.84;;;13.94;nan
24666;BME280;29726;53.532;-1.478;2022-11-20T12:16:52;99168.94;;;14.10;nan
24666;BME280;29726;53.532;-1.478;2022-11-20T12:19:19;99156.94;;;14.15;nan
24666;BME280;29726;53.532;-1.478;2022-11-20T12:30:15;99162.75;;;14.47;nan
24666;BME280;29726;53.532;-1.478;2022-11-20T12:33:09;99161.91;;;14.52;nan
24666;BME280;29726;53.532;-1.478;2022-11-20T12:35:42;99153.44;;;14.57;nan
24666;BME280;29726;53.532;-1.478;2022-11-20T12:39:05;99155.88;;;14.66;nan
24666;BME280;29726;53.532;-1.478;2022-11-20T16:33:03;99323.69;;;14.25;nan
